Time;durP1;ratioP1;P1;durP2;ratioP2;P2;SDS_P1;SDS_P2;PMS_P1;PMS_P2;Temp;Humidity;BMP_temperature;BMP_pressure;BME280_temperature;BME280_humidity;BME280_pressure;Samples;Min_cycle;Max_cycle;Signal;HPM_P1;HPM_P2
2022/02/11 00:02:12;;;;;;;76.75;28.05;;;;;;;-0.15;77.48;99625.05;1708575;80;21136;-79
2022/02/11 00:07:39;;;;;;;52.88;21.48;;;;;;;-0.22;80.34;99627.87;1646760;82;21125;31
2022/02/11 00:16:17;;;;;;;59.98;21.77;;;;;;;-0.25;79.21;99644.38;1643686;82;21449;31
2022/02/11 00:36:44;;;;;;;39.83;17.17;;;;;;;-0.31;78.69;99650.61;1700887;82;21239;31
2022/02/11 01:06:40;;;;;;;53.47;17.47;;;;;;;-1.09;81.39;99633.05;1706929;82;21081;31
2022/02/11 01:09:22;;;;;;;46.88;19.02;;;;;;;-1.09;80.84;99632.63;1701541;81;21241;31
2022/02/11 01:21:09;;;;;;;52.23;19.40;;;;;;;-1.06;81.26;99629.30;1698437;81;22822;-79
2022/02/11 01:53:41;;;;;;;35.00;15.65;;;;;;;-1.18;81.97;99606.82;1742516;79;21148;-77
2022/02/11 02:02:02;;;;;;;42.20;15.38;;;;;;;-1.10;80.10;99613.44;1684273;82;21071;-81
2022/02/11 02:50:24;;;;;;;28.75;12.20;;;;;;;-0.84;81.03;99592.08;1710082;81;21162;-76
2022/02/11 03:02:08;;;;;;;26.50;12.03;;;;;;;-0.70;82.25;99586.51;1674960;82;21122;-82
2022/02/11 03:34:53;;;;;;;35.25;14.10;;;;;;;-0.66;84.54;99580.66;1714530;79;21080;-80
2022/02/11 04:08:35;;;;;;;32.75;12.53;;;;;;;-0.40;83.85;99592.86;1749423;78;21059;-80
2022/02/11 04:55:43;;;;;;;32.50;12.70;;;;;;;-0.18;84.12;99627.93;1708537;78;21166;-82
2022/02/11 05:01:33;;;;;;;30.75;11.20;;;;;;;-0.17;84.72;99636.06;1657712;82;21165;-81
2022/02/11 05:04:00;;;;;;;29.50;11.80;;;;;;;-0.23;83.47;99635.06;1739524;78;21043;-81
2022/02/11 05:06:26;;;;;;;35.58;13.35;;;;;;;-0.15;83.30;99645.92;1752643;78;21098;-82
2022/02/11 05:14:40;;;;;;;27.82;10.98;;;;;;;-0.16;85.11;99648.00;1708835;80;21139;-82
2022/02/11 05:17:07;;;;;;;25.48;10.43;;;;;;;-0.18;86.29;99645.40;1690137;80;21379;-78
2022/02/11 05:19:33;;;;;;;24.50;9.98;;;;;;;-0.16;84.16;99651.84;1666298;83;21380;-84
2022/02/11 05:25:14;;;;;;;28.47;11.18;;;;;;;-0.18;85.29;99645.82;1688926;80;21036;31
2022/02/11 05:27:41;;;;;;;28.23;11.33;;;;;;;-0.19;84.38;99641.55;1668211;83;21337;-82
2022/02/11 05:30:10;;;;;;;24.98;11.43;;;;;;;-0.21;86.02;99643.64;1692134;79;21074;-81
2022/02/11 05:32:36;;;;;;;24.60;11.03;;;;;;;-0.21;86.50;99650.03;1639023;84;21137;-73
2022/02/11 05:35:04;;;;;;;26.12;10.70;;;;;;;-0.22;86.75;99650.87;1654241;83;21389;-78
2022/02/11 05:43:40;;;;;;;30.48;12.35;;;;;;;-0.22;84.95;99647.42;1688453;80;21075;-76
2022/02/11 05:49:14;;;;;;;29.37;11.97;;;;;;;-0.25;85.01;99640.55;1684940;80;21068;31
2022/02/11 05:52:04;;;;;;;27.10;10.90;;;;;;;-0.22;87.63;99639.37;1703666;80;22511;31
2022/02/11 05:54:31;;;;;;;19.23;9.68;;;;;;;-0.13;86.65;99644.27;1728853;79;21043;-78
2022/02/11 05:57:01;;;;;;;18.37;9.03;;;;;;;-0.04;87.17;99640.66;1679970;80;21225;31
2022/02/11 05:59:28;;;;;;;23.45;9.35;;;;;;;0.02;87.38;99640.84;1667739;81;21036;-80
2022/02/11 06:01:54;;;;;;;19.32;8.58;;;;;;;0.09;88.58;99645.70;1702334;80;21075;-83
2022/02/11 06:04:24;;;;;;;22.60;9.50;;;;;;;0.16;87.18;99639.89;1585625;82;21089;-82
2022/02/11 06:06:50;;;;;;;22.80;9.40;;;;;;;0.21;88.00;99646.00;1652684;81;21166;-82
2022/02/11 06:09:25;;;;;;;22.17;8.38;;;;;;;0.29;87.24;99653.88;1702084;80;21114;31
2022/02/11 06:11:52;;;;;;;19.45;8.33;;;;;;;0.35;87.15;99639.95;1713198;81;21043;-83
2022/02/11 06:14:19;;;;;;;21.50;10.50;;;;;;;0.43;87.64;99651.23;1703881;81;21071;-82
2022/02/11 06:16:46;;;;;;;23.65;10.28;;;;;;;0.50;87.73;99653.55;1685176;82;21071;-82
2022/02/11 06:19:13;;;;;;;30.30;10.70;;;;;;;0.56;87.72;99652.41;1685719;85;21123;-84
2022/02/11 06:21:40;;;;;;;22.98;9.20;;;;;;;0.65;87.40;99656.88;1685169;82;21255;-84
2022/02/11 06:24:08;;;;;;;19.07;8.68;;;;;;;0.73;87.67;99660.47;1692583;84;21072;-84
2022/02/11 06:26:35;;;;;;;23.73;10.53;;;;;;;0.79;87.76;99663.17;1709668;81;21133;-86
2022/02/11 06:29:01;;;;;;;28.90;10.60;;;;;;;0.85;87.73;99659.47;1691587;83;21018;-84
2022/02/11 06:31:28;;;;;;;23.60;9.45;;;;;;;0.88;87.43;99658.28;1696105;83;21265;-84
2022/02/11 06:33:55;;;;;;;17.70;7.78;;;;;;;0.94;86.61;99659.70;1668554;81;21097;-84
2022/02/11 06:36:22;;;;;;;20.57;9.63;;;;;;;0.96;87.06;99658.45;1717878;80;21124;-82
2022/02/11 06:38:49;;;;;;;29.85;11.15;;;;;;;0.99;87.03;99673.87;1727136;80;21204;-81
2022/02/11 06:41:16;;;;;;;28.77;13.72;;;;;;;1.04;86.94;99666.31;1742622;80;21052;-82
2022/02/11 06:43:43;;;;;;;120.45;43.80;;;;;;;1.06;86.67;99676.17;1712698;81;21118;-83
2022/02/11 06:46:10;;;;;;;47.33;22.17;;;;;;;1.06;86.88;99674.47;1737579;79;21026;-82
2022/02/11 06:48:37;;;;;;;36.48;17.15;;;;;;;1.08;86.86;99673.23;1812470;79;21541;-83
2022/02/11 06:51:04;;;;;;;23.15;9.40;;;;;;;1.12;86.51;99660.94;1811621;79;21109;-83
2022/02/11 06:53:30;;;;;;;23.57;10.25;;;;;;;1.20;86.08;99656.84;1813316;78;21279;-83
2022/02/11 06:56:01;;;;;;;26.10;9.80;;;;;;;1.24;86.51;99655.22;1806892;79;21275;31
2022/02/11 06:58:28;;;;;;;21.02;9.88;;;;;;;1.32;86.33;99654.97;1686649;85;21320;-82
2022/02/11 07:00:55;;;;;;;26.35;10.25;;;;;;;1.38;87.47;99655.09;1687345;83;20994;-82
2022/02/11 07:03:28;;;;;;;21.12;8.53;;;;;;;1.47;87.26;99651.84;1683689;82;21123;31
2022/02/11 07:12:14;;;;;;;22.90;9.48;;;;;;;1.83;86.99;99644.42;1690073;81;21190;31
2022/02/11 07:14:41;;;;;;;19.55;9.83;;;;;;;1.96;87.01;99636.99;1702890;81;21536;-83
2022/02/11 07:17:08;;;;;;;19.52;8.70;;;;;;;2.07;86.18;99638.88;1712074;81;20972;-82
2022/02/11 07:19:35;;;;;;;25.57;9.33;;;;;;;2.17;85.94;99642.94;1705377;80;21163;-84
2022/02/11 07:22:03;;;;;;;19.87;8.43;;;;;;;2.28;86.03;99640.97;1737241;79;20964;-84
2022/02/11 07:24:30;;;;;;;19.05;9.43;;;;;;;2.39;86.00;99636.89;1752667;78;21043;-84
2022/02/11 07:26:57;;;;;;;19.25;8.95;;;;;;;2.50;86.20;99638.34;1730418;80;20980;-83
2022/02/11 07:29:24;;;;;;;33.63;9.98;;;;;;;2.59;85.69;99627.80;1723922;80;21107;-85
2022/02/11 07:37:57;;;;;;;21.65;9.30;;;;;;;2.99;85.11;99636.52;1750159;79;21913;-88
2022/02/11 07:40:24;;;;;;;23.95;10.28;;;;;;;3.14;84.64;99632.00;1777436;77;21028;-85
2022/02/11 07:42:54;;;;;;;23.92;9.90;;;;;;;3.25;84.23;99632.16;1770754;79;21010;-86
2022/02/11 07:45:24;;;;;;;19.95;9.28;;;;;;;3.37;83.38;99628.02;1715845;79;21813;-88
2022/02/11 07:47:51;;;;;;;16.60;7.72;;;;;;;3.46;83.76;99626.41;1710391;81;21060;-88
2022/02/11 07:50:17;;;;;;;20.52;8.53;;;;;;;3.57;83.50;99626.13;1741565;81;21119;-85
2022/02/11 07:52:44;;;;;;;19.60;8.93;;;;;;;3.69;83.18;99636.55;1744006;81;21043;-84
2022/02/11 07:55:11;;;;;;;24.35;9.18;;;;;;;3.82;83.10;99625.98;1744044;82;21049;-83
2022/02/11 07:57:37;;;;;;;23.20;10.10;;;;;;;3.97;82.73;99620.13;1759637;79;21329;-82
2022/02/11 08:00:06;;;;;;;17.30;8.50;;;;;;;4.12;82.24;99628.00;1748449;81;20957;-85
2022/02/11 08:02:39;;;;;;;24.15;10.03;;;;;;;4.27;81.97;99620.83;1759145;79;20974;-85
2022/02/11 08:05:06;;;;;;;19.17;9.15;;;;;;;4.42;81.60;99626.55;1766740;80;20983;-85
2022/02/11 08:07:33;;;;;;;19.60;9.30;;;;;;;4.56;80.67;99621.51;1727600;80;21058;-84
2022/02/11 08:09:59;;;;;;;20.02;9.73;;;;;;;4.65;80.61;99624.12;1765493;80;21000;-84
2022/02/11 08:12:26;;;;;;;24.23;10.90;;;;;;;4.75;79.90;99626.35;1715453;82;21018;-86
2022/02/11 08:14:52;;;;;;;20.95;9.55;;;;;;;4.87;79.56;99629.44;1729831;81;20968;-85
2022/02/11 08:17:19;;;;;;;20.65;10.43;;;;;;;4.94;79.22;99630.78;1718318;81;21019;-85
2022/02/11 08:19:45;;;;;;;24.37;11.40;;;;;;;5.02;78.38;99626.97;1762571;78;21071;-87
2022/02/11 08:22:11;;;;;;;19.42;8.60;;;;;;;5.10;78.24;99617.99;1707498;83;21043;-90
2022/02/11 08:24:38;;;;;;;22.37;9.60;;;;;;;5.20;78.09;99618.47;1718864;82;20976;-88
2022/02/11 08:27:04;;;;;;;22.73;9.50;;;;;;;5.28;77.43;99623.23;1709577;83;21012;-89
2022/02/11 08:29:31;;;;;;;29.20;9.05;;;;;;;5.38;77.50;99623.70;1713178;82;21128;-87
2022/02/11 08:31:58;;;;;;;20.37;9.98;;;;;;;5.47;76.19;99616.86;1693451;84;21140;-84
2022/02/11 08:34:25;;;;;;;21.00;10.18;;;;;;;5.60;77.52;99610.89;1725754;83;21018;-84
2022/02/11 08:36:52;;;;;;;22.60;10.23;;;;;;;5.68;76.54;99613.50;1733882;82;21037;-84
2022/02/11 08:39:19;;;;;;;21.40;10.58;;;;;;;5.79;75.57;99606.66;1736052;81;21027;-84
2022/02/11 08:41:45;;;;;;;20.27;10.55;;;;;;;5.89;75.78;99603.24;1728402;83;20981;-83
2022/02/11 08:44:12;;;;;;;21.02;10.78;;;;;;;6.02;75.37;99600.71;1723556;82;20987;-83
2022/02/11 08:46:39;;;;;;;21.15;10.58;;;;;;;6.15;74.24;99603.31;1740612;82;20993;-84
2022/02/11 08:49:05;;;;;;;25.35;10.45;;;;;;;6.32;73.54;99594.70;1733146;81;21018;-85
2022/02/11 08:51:32;;;;;;;23.45;11.30;;;;;;;6.51;73.72;99598.16;1723216;83;21150;-83
2022/02/11 08:53:58;;;;;;;23.60;10.60;;;;;;;6.68;72.60;99592.95;1719739;82;21134;-84
2022/02/11 08:56:28;;;;;;;22.87;10.93;;;;;;;6.84;72.68;99595.09;1712428;83;21035;-83
2022/02/11 08:58:53;;;;;;;20.37;10.48;;;;;;;7.00;70.97;99593.33;1720791;83;21352;-84
2022/02/11 09:01:20;;;;;;;26.77;11.00;;;;;;;7.19;70.99;99586.39;1719840;82;21015;-84
2022/02/11 09:03:47;;;;;;;20.95;9.48;;;;;;;7.33;69.64;99594.51;1717199;81;21052;-88
2022/02/11 09:06:14;;;;;;;24.47;10.35;;;;;;;7.49;70.66;99597.04;1711840;82;21244;-88
2022/02/11 09:08:41;;;;;;;28.95;10.70;;;;;;;7.65;70.45;99596.09;1709706;82;21002;-84
2022/02/11 09:11:08;;;;;;;27.25;12.10;;;;;;;7.84;69.34;99590.39;1723705;81;21028;-85
2022/02/11 09:13:35;;;;;;;28.38;10.53;;;;;;;7.96;66.95;99593.34;1727824;82;20976;-85
2022/02/11 09:16:02;;;;;;;25.50;11.93;;;;;;;8.09;68.20;99593.66;1717803;83;21073;-83
2022/02/11 09:18:30;;;;;;;26.73;12.05;;;;;;;8.17;64.25;99590.57;1717530;82;20995;-83
2022/02/11 09:20:58;;;;;;;23.90;10.72;;;;;;;8.31;65.50;99590.47;1728393;82;21047;-84
2022/02/11 09:23:25;;;;;;;24.37;11.57;;;;;;;8.43;64.83;99590.84;1728597;82;20977;-83
2022/02/11 09:25:52;;;;;;;27.07;12.10;;;;;;;8.56;63.50;99592.46;1725326;83;21214;-85
2022/02/11 09:28:19;;;;;;;21.27;10.90;;;;;;;8.70;63.30;99595.38;1722959;82;20988;-82
2022/02/11 09:30:46;;;;;;;25.70;11.03;;;;;;;8.81;63.29;99596.11;1706542;83;21022;-83
2022/02/11 09:33:13;;;;;;;20.77;10.32;;;;;;;8.91;62.39;99592.57;1715581;81;21032;-83
2022/02/11 09:35:40;;;;;;;26.68;11.05;;;;;;;9.00;60.96;99605.02;1715826;83;20980;-82
2022/02/11 09:38:06;;;;;;;25.70;9.93;;;;;;;9.07;61.55;99601.05;1730596;82;20985;-83
2022/02/11 09:40:39;;;;;;;33.38;11.43;;;;;;;9.14;60.21;99587.56;1721067;82;20980;-87
2022/02/11 09:43:05;;;;;;;24.98;11.12;;;;;;;9.21;58.41;99594.41;1718512;83;20965;-86
2022/02/11 09:45:32;;;;;;;32.40;11.20;;;;;;;9.32;59.47;99596.41;1706737;82;21053;-82
2022/02/11 09:47:58;;;;;;;23.80;10.63;;;;;;;9.38;59.27;99594.64;1716435;83;21055;-83
2022/02/11 09:50:25;;;;;;;22.77;9.33;;;;;;;9.47;59.42;99598.40;1711968;83;21024;-83
2022/02/11 09:52:54;;;;;;;25.32;11.38;;;;;;;9.55;59.33;99588.80;1709963;83;21035;-83
2022/02/11 09:55:33;;;;;;;24.25;10.05;;;;;;;9.64;59.06;99586.06;1722207;83;21143;-83
2022/02/11 09:58:10;;;;;;;24.90;10.60;;;;;;;9.74;58.65;99577.27;1723913;83;21031;-83
2022/02/11 10:00:40;;;;;;;21.45;9.88;;;;;;;9.83;58.22;99583.20;1726397;81;21064;-82
2022/02/11 10:03:23;;;;;;;25.27;10.30;;;;;;;9.90;56.78;99575.76;1724032;83;21032;-83
2022/02/11 10:06:05;;;;;;;24.82;9.28;;;;;;;9.98;56.52;99573.91;1716614;83;20981;-84
2022/02/11 10:08:36;;;;;;;26.02;10.78;;;;;;;10.07;57.51;99573.77;1722050;81;21042;-83
2022/02/11 10:11:06;;;;;;;19.15;8.83;;;;;;;10.15;54.01;99568.46;1724307;82;21009;-84
2022/02/11 10:13:36;;;;;;;24.90;11.05;;;;;;;10.24;56.87;99565.70;1675469;84;21003;-83
2022/02/11 10:16:09;;;;;;;24.23;10.28;;;;;;;10.33;55.50;99559.09;1735336;82;21031;-84
2022/02/11 10:18:43;;;;;;;26.77;10.55;;;;;;;10.41;56.11;99555.06;1729583;83;21054;-83
2022/02/11 10:21:12;;;;;;;;;;;;;;;10.49;55.59;99551.89;1736783;82;21039;-82
2022/02/11 10:23:42;;;;;;;20.77;10.00;;;;;;;10.49;53.85;99546.69;1735519;82;20153;-83
2022/02/11 10:26:14;;;;;;;19.98;8.80;;;;;;;10.57;53.41;99543.11;1728505;82;21062;-84
2022/02/11 10:28:48;;;;;;;22.87;9.80;;;;;;;10.62;54.35;99539.52;1735940;82;20975;-82
2022/02/11 10:31:23;;;;;;;21.77;9.45;;;;;;;10.71;53.58;99541.96;1733297;82;21099;-83
2022/02/11 10:34:03;;;;;;;28.27;10.10;;;;;;;10.80;54.39;99538.31;1667780;86;21116;-83
2022/02/11 10:36:47;;;;;;;26.20;9.78;;;;;;;10.89;54.01;99522.55;1726384;83;21006;-83
2022/02/11 10:39:21;;;;;;;28.32;9.38;;;;;;;10.98;54.86;99528.45;1731658;81;20996;-84
2022/02/11 10:41:55;;;;;;;25.80;10.10;;;;;;;10.99;52.61;99510.22;1724610;83;21037;-84
2022/02/11 10:44:34;;;;;;;26.05;10.05;;;;;;;11.18;54.01;99512.02;1725081;83;21054;-82
2022/02/11 10:47:07;;;;;;;19.17;8.58;;;;;;;11.25;52.45;99517.48;1724947;82;21054;-83
2022/02/11 10:49:45;;;;;;;17.77;8.58;;;;;;;11.38;51.61;99510.28;1726740;83;21030;-83
2022/02/11 10:52:20;;;;;;;28.80;10.55;;;;;;;11.48;51.70;99509.61;1733194;81;21082;-83
2022/02/11 10:54:53;;;;;;;26.73;9.38;;;;;;;11.51;50.05;99503.89;1732875;82;21016;-83
2022/02/11 10:57:31;;;;;;;20.30;9.38;;;;;;;11.61;50.40;99516.72;1725849;81;21022;-84
2022/02/11 11:00:00;;;;;;;23.22;9.50;;;;;;;11.68;50.95;99507.44;1733999;81;21031;-83
2022/02/11 11:02:26;;;;;;;19.10;8.35;;;;;;;11.79;50.15;99495.45;1733570;82;21031;-83
2022/02/11 11:04:55;;;;;;;22.60;9.00;;;;;;;11.68;49.21;99457.95;1699067;84;21067;-84
2022/02/11 11:07:25;;;;;;;24.32;8.25;;;;;;;11.96;49.07;99482.48;1737485;81;21043;-85
2022/02/11 11:09:55;;;;;;;19.15;8.43;;;;;;;12.11;48.70;99484.72;1733225;81;21114;-83
2022/02/11 11:12:32;;;;;;;19.12;9.18;;;;;;;12.18;45.54;99480.23;1723758;82;21016;-83
2022/02/11 11:15:02;;;;;;;23.60;8.85;;;;;;;12.28;46.32;99481.25;1721645;82;21031;-85
2022/02/11 11:17:31;;;;;;;21.95;9.23;;;;;;;12.38;46.36;99470.14;1725929;82;21001;-83
2022/02/11 11:19:59;;;;;;;20.10;9.33;;;;;;;12.53;47.31;99460.61;1723370;82;21027;-83
2022/02/11 11:22:43;;;;;;;23.70;9.03;;;;;;;12.61;46.15;99462.98;1715096;82;21537;-82
2022/02/11 11:25:10;;;;;;;16.23;8.45;;;;;;;12.73;45.79;99456.14;1710332;81;21059;-84
2022/02/11 11:27:55;;;;;;;17.67;7.75;;;;;;;12.83;44.76;99457.16;1724624;82;21232;-85
2022/02/11 11:30:33;;;;;;;19.20;7.45;;;;;;;12.97;47.22;99451.55;1725406;82;21055;-84
2022/02/11 11:33:15;;;;;;;19.12;7.42;;;;;;;13.06;45.62;99452.13;1729418;82;20976;-84
2022/02/11 11:35:55;;;;;;;20.27;6.97;;;;;;;13.15;43.67;99436.67;1727707;83;21078;-86
2022/02/11 11:38:23;;;;;;;17.10;7.15;;;;;;;13.27;44.61;99438.91;1715549;82;21001;-81
2022/02/11 11:41:15;;;;;;;18.00;6.97;;;;;;;13.40;44.44;99438.09;1683587;83;21022;-85
2022/02/11 11:43:53;;;;;;;16.67;7.75;;;;;;;13.48;44.85;99428.25;1688486;83;21078;-82
2022/02/11 11:46:25;;;;;;;14.38;6.33;;;;;;;13.64;41.75;99435.15;1647443;85;21013;-82
2022/02/11 11:49:05;;;;;;;13.15;6.35;;;;;;;13.78;41.25;99426.02;1655292;85;21041;-84
2022/02/11 11:51:42;;;;;;;15.43;6.10;;;;;;;13.90;42.27;99426.91;1694571;84;21043;-84
2022/02/11 11:54:26;;;;;;;14.43;5.80;;;;;;;14.02;41.62;99420.42;1687522;84;21103;-84
2022/02/11 11:57:10;;;;;;;12.53;5.40;;;;;;;14.06;40.45;99411.10;1681526;85;21006;-84
2022/02/11 11:59:50;;;;;;;13.28;5.92;;;;;;;14.25;39.00;99410.48;1668761;84;21027;-81
2022/02/11 12:02:20;;;;;;;13.95;6.55;;;;;;;14.83;40.81;99408.39;1698635;84;21043;-82
2022/02/11 12:04:56;;;;;;;13.88;5.80;;;;;;;15.62;39.79;99402.27;1684647;85;20991;-87
2022/02/11 12:07:33;;;;;;;17.55;6.53;;;;;;;16.31;38.09;99409.00;1680043;84;21585;-85
2022/02/11 12:10:02;;;;;;;12.43;5.95;;;;;;;16.96;39.10;99396.96;1661221;85;21040;-83
2022/02/11 12:12:31;;;;;;;15.60;6.05;;;;;;;17.32;33.72;99400.09;1659977;86;21060;-81
2022/02/11 12:15:02;;;;;;;10.55;5.87;;;;;;;17.75;36.16;99390.95;1688514;83;20999;-80
2022/02/11 12:17:29;;;;;;;17.82;6.12;;;;;;;18.13;33.35;99389.51;1689335;83;21038;-82
2022/02/11 12:19:57;;;;;;;16.90;6.55;;;;;;;18.52;34.90;99390.97;1646697;86;20989;-82
2022/02/11 12:22:27;;;;;;;15.35;6.25;;;;;;;18.99;34.70;99380.16;1687909;83;21026;-81
2022/02/11 12:27:46;;;;;;;13.85;5.45;;;;;;;19.38;29.43;99389.42;1683784;83;21171;-80
2022/02/11 12:30:17;;;;;;;13.55;5.75;;;;;;;19.73;33.40;99382.61;1645046;86;21049;-80
2022/02/11 12:32:47;;;;;;;14.50;5.97;;;;;;;19.74;30.71;99386.95;1660550;85;21047;-80
2022/02/11 12:35:19;;;;;;;18.70;6.28;;;;;;;19.90;29.57;99373.23;1665487;85;21039;-81
2022/02/11 12:37:47;;;;;;;14.03;5.15;;;;;;;19.84;29.03;99374.45;1681284;83;21056;-81
2022/02/11 12:40:22;;;;;;;13.70;5.67;;;;;;;20.13;31.20;99378.92;1687164;83;21156;-79
2022/02/11 12:42:52;;;;;;;14.95;5.10;;;;;;;20.35;28.76;99371.88;1641263;86;21112;-80
2022/02/11 12:45:32;;;;;;;10.35;5.28;;;;;;;20.69;30.63;99373.78;1636447;86;20998;-79
2022/02/11 12:48:01;;;;;;;10.43;4.90;;;;;;;20.68;28.54;99368.14;1691921;83;21000;-80
2022/02/11 12:50:38;;;;;;;13.38;4.92;;;;;;;20.52;27.18;99365.57;1693391;83;21011;-80
2022/02/11 12:53:06;;;;;;;11.97;5.53;;;;;;;20.96;30.19;99364.60;1690200;83;21000;-79
2022/02/11 12:55:36;;;;;;;17.57;7.50;;;;;;;20.98;26.58;99365.35;1691237;83;21007;-79
2022/02/11 12:58:09;;;;;;;12.15;4.78;;;;;;;21.20;29.29;99364.34;1690774;83;21027;-78
2022/02/11 13:00:41;;;;;;;14.45;5.60;;;;;;;21.39;26.50;99359.19;1689550;83;21019;-82
2022/02/11 13:03:11;;;;;;;16.67;5.47;;;;;;;21.50;27.09;99354.05;1690279;83;21488;-81
2022/02/11 13:05:44;;;;;;;12.63;5.22;;;;;;;21.67;28.62;99352.11;1686446;83;21140;-80
2022/02/11 13:08:30;;;;;;;9.23;4.62;;;;;;;21.92;28.40;99344.66;1701266;82;21091;-82
2022/02/11 13:10:57;;;;;;;17.05;5.62;;;;;;;22.02;27.93;99351.02;1714932;82;21020;-82
2022/02/11 13:13:24;;;;;;;10.40;4.58;;;;;;;22.18;28.17;99343.74;1714977;82;21029;-80
2022/02/11 13:15:56;;;;;;;12.25;4.62;;;;;;;22.36;27.17;99352.70;1689189;83;21044;-82
2022/02/11 13:18:27;;;;;;;9.08;4.30;;;;;;;22.00;25.36;99351.60;1689839;83;20993;-81
2022/02/11 13:20:57;;;;;;;11.78;4.87;;;;;;;22.25;27.31;99353.45;1659545;85;21623;-82
2022/02/11 13:23:25;;;;;;;14.18;4.78;;;;;;;22.22;25.91;99350.52;1707374;82;21032;-78
2022/02/11 13:25:55;;;;;;;11.18;4.12;;;;;;;22.30;26.05;99351.31;1717600;82;21032;-79
2022/02/11 13:28:23;;;;;;;14.53;5.10;;;;;;;22.39;25.95;99347.20;1723065;82;21080;-79
2022/02/11 13:30:59;;;;;;;11.40;4.42;;;;;;;22.11;26.34;99351.73;1707464;83;21797;-77
2022/02/11 13:33:32;;;;;;;11.97;4.70;;;;;;;21.85;26.24;99349.54;1711476;83;21457;-78
2022/02/11 13:36:03;;;;;;;10.48;4.12;;;;;;;21.56;27.17;99348.84;1709314;83;22181;-78
2022/02/11 13:38:38;;;;;;;10.03;4.40;;;;;;;21.63;26.81;99349.66;1709756;82;20986;-78
2022/02/11 13:41:11;;;;;;;12.15;4.75;;;;;;;21.55;26.91;99348.48;1720554;83;21389;-79
2022/02/11 13:43:53;;;;;;;11.68;4.30;;;;;;;21.84;26.67;99347.38;1712889;83;20956;-78
2022/02/11 13:46:35;;;;;;;10.87;4.10;;;;;;;21.70;25.29;99350.08;1719202;82;21037;-79
2022/02/11 13:49:07;;;;;;;8.75;4.15;;;;;;;21.34;26.12;99350.70;1707797;83;21004;-81
2022/02/11 13:51:35;;;;;;;11.05;4.83;;;;;;;21.14;27.48;99342.27;1715187;83;21008;-79
2022/02/11 13:54:20;;;;;;;11.40;4.45;;;;;;;21.25;26.74;99350.36;1713153;83;21011;-79
2022/02/11 13:56:50;;;;;;;9.03;4.40;;;;;;;21.32;26.37;99348.63;1716275;83;21028;-81
2022/02/11 13:59:26;;;;;;;16.37;4.83;;;;;;;21.09;27.68;99351.44;1687705;83;21044;-80
2022/02/11 14:02:10;;;;;;;10.23;4.35;;;;;;;20.91;28.19;99350.81;1697547;83;21495;-79
2022/02/11 14:04:36;;;;;;;10.55;4.35;;;;;;;20.46;26.67;99359.71;1715131;83;21521;-79
2022/02/11 14:07:04;;;;;;;11.55;5.30;;;;;;;19.89;28.56;99359.65;1710866;83;21060;-79
2022/02/11 14:09:36;;;;;;;14.47;4.85;;;;;;;19.52;28.95;99357.84;1716297;82;21023;-77
2022/02/11 14:12:05;;;;;;;9.58;4.60;;;;;;;18.98;29.92;99366.59;1717074;82;22165;-78
2022/02/11 14:14:34;;;;;;;12.68;4.85;;;;;;;18.60;30.14;99362.48;1680528;85;21060;-78
2022/02/11 14:17:04;;;;;;;9.60;4.20;;;;;;;18.02;29.85;99363.73;1728657;81;20999;-78
2022/02/11 14:19:30;;;;;;;9.73;4.10;;;;;;;17.48;30.93;99368.19;1674334;86;21501;-78
2022/02/11 14:22:00;;;;;;;15.28;4.50;;;;;;;17.08;31.50;99367.02;1709043;82;21028;-82
2022/02/11 14:24:29;;;;;;;11.48;5.20;;;;;;;16.72;31.87;99360.37;1658849;85;21083;-79
2022/02/11 14:26:56;;;;;;;11.55;5.17;;;;;;;16.34;32.46;99368.69;1689491;83;21043;-81
2022/02/11 14:29:23;;;;;;;12.93;4.95;;;;;;;16.03;33.00;99366.07;1719550;82;21034;-80
2022/02/11 14:31:51;;;;;;;10.30;4.85;;;;;;;15.78;33.55;99364.98;1718166;82;21106;-82
2022/02/11 14:34:19;;;;;;;13.08;4.45;;;;;;;15.59;33.93;99370.92;1719664;83;22160;-84
2022/02/11 14:36:46;;;;;;;14.40;4.60;;;;;;;15.42;33.82;99363.77;1711839;82;21558;-79
2022/02/11 14:39:16;;;;;;;12.50;4.90;;;;;;;15.17;34.87;99375.68;1665419;85;21224;-79
2022/02/11 14:41:47;;;;;;;15.00;4.85;;;;;;;14.91;35.17;99374.92;1716686;82;21015;-79
2022/02/11 14:44:16;;;;;;;9.45;4.78;;;;;;;14.73;35.21;99383.48;1719305;82;21039;-78
2022/02/11 14:46:43;;;;;;;13.30;4.87;;;;;;;14.49;35.90;99384.75;1714903;82;21011;-82
2022/02/11 14:49:10;;;;;;;13.83;4.95;;;;;;;14.33;36.18;99380.98;1722908;82;21565;-79
2022/02/11 14:51:37;;;;;;;10.48;4.67;;;;;;;14.15;36.83;99377.73;1718247;82;20995;-80
2022/02/11 14:54:10;;;;;;;13.32;5.50;;;;;;;14.01;36.96;99379.05;1719513;83;21017;-79
2022/02/11 14:56:38;;;;;;;11.38;4.67;;;;;;;13.85;36.85;99374.81;1718607;83;21462;-79
2022/02/11 14:59:08;;;;;;;12.53;4.67;;;;;;;13.72;37.94;99365.20;1716440;82;21131;-80
2022/02/11 15:01:38;;;;;;;11.33;4.90;;;;;;;13.60;37.73;99376.07;1719896;83;21019;-79
2022/02/11 15:04:05;;;;;;;16.95;5.00;;;;;;;13.48;38.26;99381.70;1720140;83;21586;-78
2022/02/11 15:06:32;;;;;;;13.45;4.97;;;;;;;13.35;38.78;99376.45;1719831;83;21039;-78
2022/02/11 15:08:58;;;;;;;17.48;5.08;;;;;;;13.22;38.55;99372.91;1719485;82;21016;-81
2022/02/11 15:11:26;;;;;;;15.83;6.15;;;;;;;13.11;38.58;99380.20;1719366;82;21541;-80
2022/02/11 15:13:52;;;;;;;18.35;6.00;;;;;;;12.99;38.95;99385.38;1717751;82;22406;-79
2022/02/11 15:16:19;;;;;;;21.23;8.18;;;;;;;12.87;39.39;99385.72;1720567;82;20990;-78
2022/02/11 15:18:46;;;;;;;23.65;9.15;;;;;;;12.76;39.76;99386.52;1718822;82;20995;-78
2022/02/11 15:21:14;;;;;;;31.07;10.70;;;;;;;12.65;39.36;99395.51;1721436;82;21018;-79
2022/02/11 15:23:42;;;;;;;25.95;10.00;;;;;;;12.54;39.32;99399.70;1722610;82;21027;-77
2022/02/11 15:26:10;;;;;;;31.85;11.28;;;;;;;12.42;39.72;99395.30;1717984;83;21023;-79
2022/02/11 15:28:40;;;;;;;30.00;11.65;;;;;;;12.30;39.95;99400.40;1719810;83;21056;-78
2022/02/11 15:31:12;;;;;;;29.23;11.80;;;;;;;12.13;41.54;99400.84;1722140;82;21459;-81
2022/02/11 15:33:42;;;;;;;36.23;15.03;;;;;;;12.01;40.57;99402.01;1716684;83;20975;-79
2022/02/11 15:36:11;;;;;;;30.70;11.78;;;;;;;11.88;41.14;99400.61;1718522;82;20971;-79
2022/02/11 15:38:39;;;;;;;39.05;13.72;;;;;;;11.73;40.93;99403.13;1717460;83;21491;-78
2022/02/11 15:41:08;;;;;;;32.78;13.03;;;;;;;11.58;42.73;99403.08;1723721;82;21017;-79
2022/02/11 15:43:36;;;;;;;29.50;12.00;;;;;;;11.44;42.21;99406.44;1716013;82;21100;-78
2022/02/11 15:46:05;;;;;;;27.55;10.65;;;;;;;11.31;43.05;99413.69;1716627;82;21179;-79
2022/02/11 15:48:33;;;;;;;26.50;10.82;;;;;;;11.14;43.79;99411.03;1718230;83;21084;-78
2022/02/11 15:51:04;;;;;;;130.78;38.90;;;;;;;11.00;44.23;99420.89;1717859;82;21063;-81
2022/02/11 15:53:31;;;;;;;79.62;23.22;;;;;;;10.87;44.25;99424.18;1714369;83;21384;-79
2022/02/11 15:55:58;;;;;;;31.95;12.70;;;;;;;10.68;45.17;99430.22;1722512;82;21343;-78
2022/02/11 15:58:24;;;;;;;61.68;19.32;;;;;;;10.55;44.50;99433.94;1677759;84;22174;-78
2022/02/11 16:00:51;;;;;;;45.78;19.00;;;;;;;10.44;44.14;99433.28;1697828;83;21061;-79
2022/02/11 16:03:19;;;;;;;53.23;18.65;;;;;;;10.30;45.91;99437.44;1697146;84;20981;-78
2022/02/11 16:05:45;;;;;;;51.40;20.08;;;;;;;10.22;48.19;99436.69;1665066;85;21072;-80
2022/02/11 16:08:12;;;;;;;44.35;19.12;;;;;;;10.20;48.21;99435.41;1668903;84;21016;-79
2022/02/11 16:10:39;;;;;;;39.03;17.57;;;;;;;10.16;48.41;99438.50;1689806;84;21055;-79
2022/02/11 16:13:06;;;;;;;40.30;17.73;;;;;;;10.11;47.71;99440.34;1687801;84;20998;-81
2022/02/11 16:15:33;;;;;;;47.33;19.10;;;;;;;10.05;49.15;99445.66;1670695;84;21056;-80
2022/02/11 16:18:00;;;;;;;40.58;17.75;;;;;;;10.01;49.00;99449.61;1692323;84;21142;-79
2022/02/11 16:20:45;;;;;;;40.30;16.87;;;;;;;9.93;48.79;99451.06;1698317;84;21026;-81
2022/02/11 16:23:17;;;;;;;38.95;17.07;;;;;;;9.89;47.40;99453.30;1697972;84;20943;-81
2022/02/11 16:25:44;;;;;;;59.33;24.92;;;;;;;9.83;47.11;99458.56;1700432;84;21482;-80
2022/02/11 16:28:13;;;;;;;51.48;23.20;;;;;;;9.75;47.96;99462.16;1724149;82;21457;-81
2022/02/11 16:30:41;;;;;;;54.13;26.30;;;;;;;9.69;46.74;99466.59;1705721;82;21048;-78
2022/02/11 16:33:08;;;;;;;47.20;22.67;;;;;;;9.59;47.02;99474.97;1718794;83;21008;-78
2022/02/11 16:35:38;;;;;;;53.78;25.02;;;;;;;9.53;47.90;99475.06;1721801;82;21027;-81
2022/02/11 16:38:06;;;;;;;49.98;23.38;;;;;;;9.46;47.35;99478.16;1717961;83;21640;-81